sensor_id;sensor_type;location;lat;lon;timestamp;P1;durP1;ratioP1;P2;durP2;ratioP2
17141;SDS011;32805;53.556;9.944;2023-03-13T00:00:55;18.70;;;5.63;;
17141;SDS011;32805;53.556;9.944;2023-03-13T00:03:24;14.75;;;5.80;;
17141;SDS011;32805;53.556;9.944;2023-03-13T00:05:54;20.42;;;6.40;;
17141;SDS011;32805;53.556;9.944;2023-03-13T00:08:22;22.83;;;5.82;;
17141;SDS011;32805;53.556;9.944;2023-03-13T00:10:50;22.02;;;6.50;;
17141;SDS011;32805;53.556;9.944;2023-03-13T00:13:19;16.13;;;6.00;;
17141;SDS011;32805;53.556;9.944;2023-03-13T00:15:47;25.58;;;5.93;;
17141;SDS011;32805;53.556;9.944;2023-03-13T00:18:14;19.77;;;6.95;;
17141;SDS011;32805;53.556;9.944;2023-03-13T00:20:42;25.63;;;5.60;;
17141;SDS011;32805;53.556;9.944;2023-03-13T00:23:12;20.25;;;5.53;;
17141;SDS011;32805;53.556;9.944;2023-03-13T00:25:40;21.83;;;5.82;;
17141;SDS011;32805;53.556;9.944;2023-03-13T00:28:07;19.60;;;5.40;;
17141;SDS011;32805;53.556;9.944;2023-03-13T00:30:36;21.65;;;5.38;;
17141;SDS011;32805;53.556;9.944;2023-03-13T00:33:04;26.40;;;5.78;;
17141;SDS011;32805;53.556;9.944;2023-03-13T00:35:31;18.05;;;5.50;;
17141;SDS011;32805;53.556;9.944;2023-03-13T00:37:59;17.83;;;5.95;;
17141;SDS011;32805;53.556;9.944;2023-03-13T00:40:27;18.13;;;5.47;;
17141;SDS011;32805;53.556;9.944;2023-03-13T00:42:54;17.05;;;5.82;;
17141;SDS011;32805;53.556;9.944;2023-03-13T00:45:22;20.38;;;5.80;;
17141;SDS011;32805;53.556;9.944;2023-03-13T00:47:51;23.17;;;5.68;;
17141;SDS011;32805;53.556;9.944;2023-03-13T00:50:18;20.73;;;5.18;;
17141;SDS011;32805;53.556;9.944;2023-03-13T00:52:46;26.00;;;6.60;;
17141;SDS011;32805;53.556;9.944;2023-03-13T00:55:13;23.70;;;7.03;;
17141;SDS011;32805;53.556;9.944;2023-03-13T00:57:41;21.30;;;6.05;;
17141;SDS011;32805;53.556;9.944;2023-03-13T01:00:09;15.82;;;6.03;;
17141;SDS011;32805;53.556;9.944;2023-03-13T01:02:40;23.23;;;6.22;;
17141;SDS011;32805;53.556;9.944;2023-03-13T01:05:10;19.00;;;5.30;;
17141;SDS011;32805;53.556;9.944;2023-03-13T01:07:38;17.60;;;5.90;;
17141;SDS011;32805;53.556;9.944;2023-03-13T01:10:06;22.80;;;7.30;;
17141;SDS011;32805;53.556;9.944;2023-03-13T01:12:34;19.73;;;7.40;;
17141;SDS011;32805;53.556;9.944;2023-03-13T01:15:02;21.35;;;6.30;;
17141;SDS011;32805;53.556;9.944;2023-03-13T01:17:31;22.40;;;6.90;;
17141;SDS011;32805;53.556;9.944;2023-03-13T01:19:58;20.95;;;5.95;;
17141;SDS011;32805;53.556;9.944;2023-03-13T01:22:27;20.60;;;7.10;;
17141;SDS011;32805;53.556;9.944;2023-03-13T01:24:55;19.02;;;8.25;;
17141;SDS011;32805;53.556;9.944;2023-03-13T01:27:22;20.45;;;5.93;;
17141;SDS011;32805;53.556;9.944;2023-03-13T01:29:50;23.42;;;6.70;;
17141;SDS011;32805;53.556;9.944;2023-03-13T01:32:19;24.25;;;6.93;;
17141;SDS011;32805;53.556;9.944;2023-03-13T01:34:47;19.38;;;6.63;;
17141;SDS011;32805;53.556;9.944;2023-03-13T01:37:16;22.50;;;6.32;;
17141;SDS011;32805;53.556;9.944;2023-03-13T01:39:45;20.00;;;6.25;;
17141;SDS011;32805;53.556;9.944;2023-03-13T01:42:12;22.90;;;6.50;;
17141;SDS011;32805;53.556;9.944;2023-03-13T01:44:48;19.98;;;6.85;;
17141;SDS011;32805;53.556;9.944;2023-03-13T01:47:17;16.48;;;6.70;;
17141;SDS011;32805;53.556;9.944;2023-03-13T01:50:05;19.65;;;6.35;;
17141;SDS011;32805;53.556;9.944;2023-03-13T01:52:47;18.88;;;6.22;;
17141;SDS011;32805;53.556;9.944;2023-03-13T01:55:21;23.25;;;6.85;;
17141;SDS011;32805;53.556;9.944;2023-03-13T01:57:51;23.65;;;5.95;;
17141;SDS011;32805;53.556;9.944;2023-03-13T02:00:21;25.75;;;6.50;;
17141;SDS011;32805;53.556;9.944;2023-03-13T02:02:51;21.25;;;6.35;;
17141;SDS011;32805;53.556;9.944;2023-03-13T02:05:22;22.58;;;5.80;;
17141;SDS011;32805;53.556;9.944;2023-03-13T02:07:53;19.70;;;5.93;;
17141;SDS011;32805;53.556;9.944;2023-03-13T02:10:24;22.15;;;6.25;;
17141;SDS011;32805;53.556;9.944;2023-03-13T02:12:55;15.82;;;4.95;;
17141;SDS011;32805;53.556;9.944;2023-03-13T02:15:25;24.95;;;5.90;;
17141;SDS011;32805;53.556;9.944;2023-03-13T02:17:54;17.83;;;5.28;;
17141;SDS011;32805;53.556;9.944;2023-03-13T02:20:23;15.80;;;5.25;;
17141;SDS011;32805;53.556;9.944;2023-03-13T02:22:52;19.90;;;5.82;;
17141;SDS011;32805;53.556;9.944;2023-03-13T02:25:31;20.45;;;5.65;;
17141;SDS011;32805;53.556;9.944;2023-03-13T02:28:04;21.10;;;5.63;;
17141;SDS011;32805;53.556;9.944;2023-03-13T02:30:37;16.23;;;4.93;;
17141;SDS011;32805;53.556;9.944;2023-03-13T02:33:08;19.85;;;5.20;;
17141;SDS011;32805;53.556;9.944;2023-03-13T02:35:37;20.80;;;5.32;;
17141;SDS011;32805;53.556;9.944;2023-03-13T02:38:09;18.13;;;5.72;;
17141;SDS011;32805;53.556;9.944;2023-03-13T02:40:41;11.65;;;4.93;;
17141;SDS011;32805;53.556;9.944;2023-03-13T02:43:13;15.23;;;5.05;;
17141;SDS011;32805;53.556;9.944;2023-03-13T02:45:58;20.02;;;4.63;;
17141;SDS011;32805;53.556;9.944;2023-03-13T02:48:29;22.65;;;5.63;;
17141;SDS011;32805;53.556;9.944;2023-03-13T02:50:59;18.33;;;4.55;;
17141;SDS011;32805;53.556;9.944;2023-03-13T02:53:28;19.10;;;5.55;;
17141;SDS011;32805;53.556;9.944;2023-03-13T02:55:58;25.48;;;5.68;;
17141;SDS011;32805;53.556;9.944;2023-03-13T02:58:26;19.05;;;5.10;;
17141;SDS011;32805;53.556;9.944;2023-03-13T03:00:58;23.75;;;5.57;;
17141;SDS011;32805;53.556;9.944;2023-03-13T03:03:35;17.67;;;4.72;;
17141;SDS011;32805;53.556;9.944;2023-03-13T03:06:04;19.90;;;4.93;;
17141;SDS011;32805;53.556;9.944;2023-03-13T03:08:33;17.60;;;4.38;;
17141;SDS011;32805;53.556;9.944;2023-03-13T03:11:05;22.17;;;4.88;;
17141;SDS011;32805;53.556;9.944;2023-03-13T03:13:32;20.63;;;5.95;;
17141;SDS011;32805;53.556;9.944;2023-03-13T03:16:04;18.23;;;5.05;;
17141;SDS011;32805;53.556;9.944;2023-03-13T03:18:33;21.27;;;5.80;;
17141;SDS011;32805;53.556;9.944;2023-03-13T03:21:02;23.58;;;4.40;;
17141;SDS011;32805;53.556;9.944;2023-03-13T03:23:35;18.85;;;6.05;;
17141;SDS011;32805;53.556;9.944;2023-03-13T03:26:05;21.60;;;4.78;;
17141;SDS011;32805;53.556;9.944;2023-03-13T03:28:33;17.98;;;4.38;;
17141;SDS011;32805;53.556;9.944;2023-03-13T03:31:07;15.25;;;4.88;;
17141;SDS011;32805;53.556;9.944;2023-03-13T03:33:36;18.40;;;4.65;;
17141;SDS011;32805;53.556;9.944;2023-03-13T03:36:09;16.88;;;4.93;;
17141;SDS011;32805;53.556;9.944;2023-03-13T03:38:39;21.52;;;4.85;;
17141;SDS011;32805;53.556;9.944;2023-03-13T03:41:10;18.38;;;4.38;;
17141;SDS011;32805;53.556;9.944;2023-03-13T03:43:39;19.65;;;5.03;;
17141;SDS011;32805;53.556;9.944;2023-03-13T03:46:07;15.35;;;4.10;;
17141;SDS011;32805;53.556;9.944;2023-03-13T03:48:36;19.30;;;5.35;;
17141;SDS011;32805;53.556;9.944;2023-03-13T03:51:05;18.60;;;4.40;;
17141;SDS011;32805;53.556;9.944;2023-03-13T03:53:37;20.17;;;4.70;;
17141;SDS011;32805;53.556;9.944;2023-03-13T03:56:06;15.77;;;4.63;;
17141;SDS011;32805;53.556;9.944;2023-03-13T03:58:40;28.65;;;5.90;;
17141;SDS011;32805;53.556;9.944;2023-03-13T04:01:40;21.00;;;4.97;;
17141;SDS011;32805;53.556;9.944;2023-03-13T04:04:10;16.00;;;4.32;;
17141;SDS011;32805;53.556;9.944;2023-03-13T04:06:40;19.73;;;4.80;;
17141;SDS011;32805;53.556;9.944;2023-03-13T04:09:08;21.45;;;5.78;;
17141;SDS011;32805;53.556;9.944;2023-03-13T04:11:36;22.73;;;5.25;;
17141;SDS011;32805;53.556;9.944;2023-03-13T04:14:07;24.20;;;5.00;;
17141;SDS011;32805;53.556;9.944;2023-03-13T04:16:35;16.45;;;4.93;;
17141;SDS011;32805;53.556;9.944;2023-03-13T04:19:03;14.27;;;4.10;;
17141;SDS011;32805;53.556;9.944;2023-03-13T04:21:31;18.98;;;4.60;;
17141;SDS011;32805;53.556;9.944;2023-03-13T04:24:07;28.27;;;6.35;;
17141;SDS011;32805;53.556;9.944;2023-03-13T04:26:37;22.08;;;4.70;;
17141;SDS011;32805;53.556;9.944;2023-03-13T04:29:06;22.85;;;4.90;;
17141;SDS011;32805;53.556;9.944;2023-03-13T04:31:45;17.38;;;4.55;;
17141;SDS011;32805;53.556;9.944;2023-03-13T04:34:38;16.35;;;4.55;;
17141;SDS011;32805;53.556;9.944;2023-03-13T04:37:13;14.52;;;4.15;;
17141;SDS011;32805;53.556;9.944;2023-03-13T04:40:11;11.02;;;3.88;;
17141;SDS011;32805;53.556;9.944;2023-03-13T04:43:02;16.45;;;4.53;;
17141;SDS011;32805;53.556;9.944;2023-03-13T04:45:53;16.73;;;4.93;;
17141;SDS011;32805;53.556;9.944;2023-03-13T04:48:56;17.13;;;4.70;;
17141;SDS011;32805;53.556;9.944;2023-03-13T04:51:48;15.25;;;5.18;;
17141;SDS011;32805;53.556;9.944;2023-03-13T04:54:27;15.85;;;4.40;;
17141;SDS011;32805;53.556;9.944;2023-03-13T04:57:05;17.77;;;5.45;;
17141;SDS011;32805;53.556;9.944;2023-03-13T04:59:53;17.02;;;4.55;;
17141;SDS011;32805;53.556;9.944;2023-03-13T05:02:37;14.48;;;4.57;;
17141;SDS011;32805;53.556;9.944;2023-03-13T05:05:25;16.13;;;4.45;;
17141;SDS011;32805;53.556;9.944;2023-03-13T05:08:02;17.80;;;5.32;;
17141;SDS011;32805;53.556;9.944;2023-03-13T05:10:50;17.40;;;4.57;;
17141;SDS011;32805;53.556;9.944;2023-03-13T05:13:36;48.15;;;14.40;;
17141;SDS011;32805;53.556;9.944;2023-03-13T05:16:14;20.30;;;4.82;;
17141;SDS011;32805;53.556;9.944;2023-03-13T05:19:02;11.63;;;4.47;;
17141;SDS011;32805;53.556;9.944;2023-03-13T05:21:40;12.65;;;4.88;;
17141;SDS011;32805;53.556;9.944;2023-03-13T05:24:26;18.13;;;5.43;;
17141;SDS011;32805;53.556;9.944;2023-03-13T05:27:16;19.02;;;5.30;;
17141;SDS011;32805;53.556;9.944;2023-03-13T05:30:02;14.60;;;4.72;;
17141;SDS011;32805;53.556;9.944;2023-03-13T05:32:44;8.35;;;4.20;;
17141;SDS011;32805;53.556;9.944;2023-03-13T05:35:21;9.55;;;4.10;;
17141;SDS011;32805;53.556;9.944;2023-03-13T05:38:04;10.80;;;4.20;;
17141;SDS011;32805;53.556;9.944;2023-03-13T05:40:52;12.52;;;3.70;;
17141;SDS011;32805;53.556;9.944;2023-03-13T05:43:35;13.10;;;4.53;;
17141;SDS011;32805;53.556;9.944;2023-03-13T05:46:26;10.00;;;3.30;;
17141;SDS011;32805;53.556;9.944;2023-03-13T05:49:14;7.40;;;3.25;;
17141;SDS011;32805;53.556;9.944;2023-03-13T05:52:01;8.25;;;3.08;;
17141;SDS011;32805;53.556;9.944;2023-03-13T05:54:47;9.45;;;3.10;;
17141;SDS011;32805;53.556;9.944;2023-03-13T05:57:53;6.15;;;2.63;;
17141;SDS011;32805;53.556;9.944;2023-03-13T06:00:43;5.93;;;2.45;;
17141;SDS011;32805;53.556;9.944;2023-03-13T06:03:41;6.05;;;2.75;;
17141;SDS011;32805;53.556;9.944;2023-03-13T06:06:10;5.30;;;2.53;;
17141;SDS011;32805;53.556;9.944;2023-03-13T06:08:50;4.05;;;2.10;;
17141;SDS011;32805;53.556;9.944;2023-03-13T06:11:19;7.72;;;2.35;;
17141;SDS011;32805;53.556;9.944;2023-03-13T06:13:46;7.60;;;2.35;;
17141;SDS011;32805;53.556;9.944;2023-03-13T06:16:21;4.95;;;1.60;;
17141;SDS011;32805;53.556;9.944;2023-03-13T06:18:50;5.85;;;1.80;;
17141;SDS011;32805;53.556;9.944;2023-03-13T06:21:17;5.57;;;1.70;;
17141;SDS011;32805;53.556;9.944;2023-03-13T06:23:45;5.53;;;1.50;;
17141;SDS011;32805;53.556;9.944;2023-03-13T06:26:14;1.77;;;1.35;;
17141;SDS011;32805;53.556;9.944;2023-03-13T06:28:41;6.13;;;1.50;;
17141;SDS011;32805;53.556;9.944;2023-03-13T06:31:09;6.72;;;1.50;;
17141;SDS011;32805;53.556;9.944;2023-03-13T06:33:37;2.63;;;1.30;;
17141;SDS011;32805;53.556;9.944;2023-03-13T06:36:05;2.85;;;1.63;;
17141;SDS011;32805;53.556;9.944;2023-03-13T06:38:33;2.47;;;1.10;;
17141;SDS011;32805;53.556;9.944;2023-03-13T06:41:00;1.05;;;0.90;;
17141;SDS011;32805;53.556;9.944;2023-03-13T06:43:29;2.97;;;1.10;;
17141;SDS011;32805;53.556;9.944;2023-03-13T06:46:01;3.67;;;1.30;;
17141;SDS011;32805;53.556;9.944;2023-03-13T06:48:29;2.85;;;1.25;;
17141;SDS011;32805;53.556;9.944;2023-03-13T06:50:57;2.33;;;1.33;;
17141;SDS011;32805;53.556;9.944;2023-03-13T06:53:25;5.97;;;1.77;;
17141;SDS011;32805;53.556;9.944;2023-03-13T06:55:52;2.67;;;1.50;;
17141;SDS011;32805;53.556;9.944;2023-03-13T06:58:20;1.95;;;1.20;;
17141;SDS011;32805;53.556;9.944;2023-03-13T07:00:59;6.18;;;1.75;;
17141;SDS011;32805;53.556;9.944;2023-03-13T07:03:32;2.75;;;1.50;;
17141;SDS011;32805;53.556;9.944;2023-03-13T07:05:59;2.85;;;1.67;;
17141;SDS011;32805;53.556;9.944;2023-03-13T07:08:27;3.30;;;1.67;;
17141;SDS011;32805;53.556;9.944;2023-03-13T07:10:57;2.85;;;1.83;;
17141;SDS011;32805;53.556;9.944;2023-03-13T07:13:26;4.45;;;1.80;;
17141;SDS011;32805;53.556;9.944;2023-03-13T07:15:54;4.82;;;2.00;;
17141;SDS011;32805;53.556;9.944;2023-03-13T07:18:23;4.35;;;2.17;;
17141;SDS011;32805;53.556;9.944;2023-03-13T07:20:51;5.70;;;1.90;;
17141;SDS011;32805;53.556;9.944;2023-03-13T07:23:20;4.53;;;2.20;;
17141;SDS011;32805;53.556;9.944;2023-03-13T07:25:51;3.92;;;2.17;;
17141;SDS011;32805;53.556;9.944;2023-03-13T07:28:20;6.80;;;2.25;;
17141;SDS011;32805;53.556;9.944;2023-03-13T07:30:47;1.92;;;1.73;;
17141;SDS011;32805;53.556;9.944;2023-03-13T07:33:15;4.07;;;2.50;;
17141;SDS011;32805;53.556;9.944;2023-03-13T07:35:47;4.50;;;2.20;;
17141;SDS011;32805;53.556;9.944;2023-03-13T07:38:15;3.70;;;2.20;;
17141;SDS011;32805;53.556;9.944;2023-03-13T07:40:47;3.28;;;2.50;;
17141;SDS011;32805;53.556;9.944;2023-03-13T07:43:15;3.20;;;2.55;;
17141;SDS011;32805;53.556;9.944;2023-03-13T07:45:50;3.72;;;2.30;;
17141;SDS011;32805;53.556;9.944;2023-03-13T07:48:19;7.43;;;3.08;;
17141;SDS011;32805;53.556;9.944;2023-03-13T07:50:49;6.97;;;3.85;;
17141;SDS011;32805;53.556;9.944;2023-03-13T07:53:17;4.15;;;3.08;;
17141;SDS011;32805;53.556;9.944;2023-03-13T07:55:50;4.18;;;2.78;;
17141;SDS011;32805;53.556;9.944;2023-03-13T07:58:19;5.10;;;3.50;;
17141;SDS011;32805;53.556;9.944;2023-03-13T08:00:47;5.40;;;2.95;;
17141;SDS011;32805;53.556;9.944;2023-03-13T08:03:14;5.85;;;2.90;;
17141;SDS011;32805;53.556;9.944;2023-03-13T08:05:42;4.18;;;3.30;;
17141;SDS011;32805;53.556;9.944;2023-03-13T08:08:11;6.72;;;3.20;;
17141;SDS011;32805;53.556;9.944;2023-03-13T08:10:39;5.32;;;3.60;;
17141;SDS011;32805;53.556;9.944;2023-03-13T08:13:06;5.00;;;3.58;;
17141;SDS011;32805;53.556;9.944;2023-03-13T08:15:34;4.70;;;3.40;;
17141;SDS011;32805;53.556;9.944;2023-03-13T08:18:02;5.55;;;3.75;;
17141;SDS011;32805;53.556;9.944;2023-03-13T08:20:29;4.43;;;3.60;;
17141;SDS011;32805;53.556;9.944;2023-03-13T08:22:57;6.65;;;3.50;;
17141;SDS011;32805;53.556;9.944;2023-03-13T08:25:26;3.80;;;3.40;;
17141;SDS011;32805;53.556;9.944;2023-03-13T08:27:53;4.30;;;3.38;;
17141;SDS011;32805;53.556;9.944;2023-03-13T08:30:21;4.43;;;3.35;;
17141;SDS011;32805;53.556;9.944;2023-03-13T08:32:48;5.18;;;3.55;;
17141;SDS011;32805;53.556;9.944;2023-03-13T08:35:16;5.93;;;4.18;;
17141;SDS011;32805;53.556;9.944;2023-03-13T08:37:44;4.38;;;3.05;;
17141;SDS011;32805;53.556;9.944;2023-03-13T08:40:11;6.05;;;3.47;;
17141;SDS011;32805;53.556;9.944;2023-03-13T08:42:41;6.65;;;3.60;;
17141;SDS011;32805;53.556;9.944;2023-03-13T08:45:08;3.85;;;3.30;;
17141;SDS011;32805;53.556;9.944;2023-03-13T08:47:36;4.38;;;3.35;;
17141;SDS011;32805;53.556;9.944;2023-03-13T08:50:04;4.97;;;3.78;;
17141;SDS011;32805;53.556;9.944;2023-03-13T08:52:32;6.22;;;4.40;;
17141;SDS011;32805;53.556;9.944;2023-03-13T08:55:00;6.10;;;4.25;;
17141;SDS011;32805;53.556;9.944;2023-03-13T08:57:27;5.80;;;3.92;;
17141;SDS011;32805;53.556;9.944;2023-03-13T08:59:57;5.78;;;4.22;;
17141;SDS011;32805;53.556;9.944;2023-03-13T09:02:24;6.95;;;5.13;;
17141;SDS011;32805;53.556;9.944;2023-03-13T09:04:52;5.47;;;4.90;;
17141;SDS011;32805;53.556;9.944;2023-03-13T09:07:19;6.28;;;4.82;;
17141;SDS011;32805;53.556;9.944;2023-03-13T09:09:47;6.70;;;4.60;;
17141;SDS011;32805;53.556;9.944;2023-03-13T09:12:14;6.93;;;5.35;;
17141;SDS011;32805;53.556;9.944;2023-03-13T09:14:57;6.75;;;4.93;;
17141;SDS011;32805;53.556;9.944;2023-03-13T09:17:24;6.68;;;4.90;;
17141;SDS011;32805;53.556;9.944;2023-03-13T09:19:52;8.27;;;5.60;;
17141;SDS011;32805;53.556;9.944;2023-03-13T09:22:26;7.45;;;5.25;;
17141;SDS011;32805;53.556;9.944;2023-03-13T09:24:53;5.75;;;4.60;;
17141;SDS011;32805;53.556;9.944;2023-03-13T09:27:21;6.15;;;4.72;;
17141;SDS011;32805;53.556;9.944;2023-03-13T09:29:49;5.47;;;4.65;;
17141;SDS011;32805;53.556;9.944;2023-03-13T09:32:18;6.47;;;4.68;;
17141;SDS011;32805;53.556;9.944;2023-03-13T09:34:46;5.43;;;4.50;;
17141;SDS011;32805;53.556;9.944;2023-03-13T09:37:13;6.80;;;4.43;;
17141;SDS011;32805;53.556;9.944;2023-03-13T09:39:41;5.78;;;4.68;;
17141;SDS011;32805;53.556;9.944;2023-03-13T09:42:11;6.32;;;4.65;;
17141;SDS011;32805;53.556;9.944;2023-03-13T09:44:43;7.45;;;5.07;;
17141;SDS011;32805;53.556;9.944;2023-03-13T09:47:13;5.85;;;4.38;;
17141;SDS011;32805;53.556;9.944;2023-03-13T09:49:48;5.78;;;5.15;;
17141;SDS011;32805;53.556;9.944;2023-03-13T09:52:21;8.15;;;4.88;;
17141;SDS011;32805;53.556;9.944;2023-03-13T09:54:51;7.53;;;5.22;;
17141;SDS011;32805;53.556;9.944;2023-03-13T09:57:24;5.68;;;5.05;;
17141;SDS011;32805;53.556;9.944;2023-03-13T09:59:59;10.70;;;6.55;;
17141;SDS011;32805;53.556;9.944;2023-03-13T10:02:34;8.20;;;6.00;;
17141;SDS011;32805;53.556;9.944;2023-03-13T10:05:05;8.82;;;5.70;;
17141;SDS011;32805;53.556;9.944;2023-03-13T10:07:38;8.23;;;5.15;;
17141;SDS011;32805;53.556;9.944;2023-03-13T10:10:09;6.43;;;5.57;;
17141;SDS011;32805;53.556;9.944;2023-03-13T10:12:40;7.97;;;5.50;;
17141;SDS011;32805;53.556;9.944;2023-03-13T10:18:11;6.72;;;5.10;;
17141;SDS011;32805;53.556;9.944;2023-03-13T10:20:42;6.50;;;5.15;;
17141;SDS011;32805;53.556;9.944;2023-03-13T10:23:14;7.55;;;4.93;;
17141;SDS011;32805;53.556;9.944;2023-03-13T10:25:45;8.70;;;5.93;;
17141;SDS011;32805;53.556;9.944;2023-03-13T10:28:13;5.05;;;4.43;;
17141;SDS011;32805;53.556;9.944;2023-03-13T10:30:46;6.25;;;4.22;;
17141;SDS011;32805;53.556;9.944;2023-03-13T10:33:19;5.35;;;3.83;;
17141;SDS011;32805;53.556;9.944;2023-03-13T10:36:06;7.18;;;4.50;;
17141;SDS011;32805;53.556;9.944;2023-03-13T10:38:44;4.60;;;3.85;;
17141;SDS011;32805;53.556;9.944;2023-03-13T10:41:22;4.55;;;4.00;;
17141;SDS011;32805;53.556;9.944;2023-03-13T10:43:54;6.15;;;3.90;;
17141;SDS011;32805;53.556;9.944;2023-03-13T10:46:26;6.25;;;4.13;;
17141;SDS011;32805;53.556;9.944;2023-03-13T10:48:59;7.97;;;3.90;;
17141;SDS011;32805;53.556;9.944;2023-03-13T10:51:29;5.20;;;3.90;;
17141;SDS011;32805;53.556;9.944;2023-03-13T10:54:11;5.88;;;3.90;;
17141;SDS011;32805;53.556;9.944;2023-03-13T10:56:41;7.72;;;3.70;;
17141;SDS011;32805;53.556;9.944;2023-03-13T10:59:18;7.05;;;4.47;;
17141;SDS011;32805;53.556;9.944;2023-03-13T11:01:49;5.53;;;3.90;;
17141;SDS011;32805;53.556;9.944;2023-03-13T11:04:19;6.43;;;3.95;;
17141;SDS011;32805;53.556;9.944;2023-03-13T11:07:00;8.10;;;3.78;;
17141;SDS011;32805;53.556;9.944;2023-03-13T11:09:29;6.15;;;3.88;;
17141;SDS011;32805;53.556;9.944;2023-03-13T11:12:00;7.45;;;3.53;;
17141;SDS011;32805;53.556;9.944;2023-03-13T11:14:30;6.50;;;4.00;;
17141;SDS011;32805;53.556;9.944;2023-03-13T11:16:59;3.92;;;3.30;;
17141;SDS011;32805;53.556;9.944;2023-03-13T11:19:35;5.90;;;4.30;;
17141;SDS011;32805;53.556;9.944;2023-03-13T11:25:10;4.70;;;3.92;;
17141;SDS011;32805;53.556;9.944;2023-03-13T11:27:45;5.00;;;3.20;;
17141;SDS011;32805;53.556;9.944;2023-03-13T11:30:20;4.28;;;2.83;;
17141;SDS011;32805;53.556;9.944;2023-03-13T11:32:59;5.78;;;3.08;;
17141;SDS011;32805;53.556;9.944;2023-03-13T11:35:34;2.90;;;2.60;;
17141;SDS011;32805;53.556;9.944;2023-03-13T11:38:06;5.75;;;2.83;;
17141;SDS011;32805;53.556;9.944;2023-03-13T11:40:40;4.78;;;2.97;;
17141;SDS011;32805;53.556;9.944;2023-03-13T11:43:16;4.03;;;2.20;;
17141;SDS011;32805;53.556;9.944;2023-03-13T11:46:11;2.55;;;2.30;;
17141;SDS011;32805;53.556;9.944;2023-03-13T11:49:03;3.58;;;2.60;;
17141;SDS011;32805;53.556;9.944;2023-03-13T11:51:42;2.58;;;2.00;;
17141;SDS011;32805;53.556;9.944;2023-03-13T11:54:24;5.57;;;2.22;;
17141;SDS011;32805;53.556;9.944;2023-03-13T11:57:20;3.58;;;1.83;;
17141;SDS011;32805;53.556;9.944;2023-03-13T12:00:00;3.03;;;2.40;;
17141;SDS011;32805;53.556;9.944;2023-03-13T12:02:45;4.45;;;2.10;;
17141;SDS011;32805;53.556;9.944;2023-03-13T12:05:18;4.40;;;2.25;;
17141;SDS011;32805;53.556;9.944;2023-03-13T12:07:50;4.15;;;2.22;;
17141;SDS011;32805;53.556;9.944;2023-03-13T12:10:24;3.50;;;2.63;;
17141;SDS011;32805;53.556;9.944;2023-03-13T12:12:55;4.18;;;2.08;;
17141;SDS011;32805;53.556;9.944;2023-03-13T12:15:30;2.50;;;2.30;;
17141;SDS011;32805;53.556;9.944;2023-03-13T12:18:04;2.80;;;2.03;;
17141;SDS011;32805;53.556;9.944;2023-03-13T12:20:38;3.08;;;2.25;;
17141;SDS011;32805;53.556;9.944;2023-03-13T12:23:20;3.67;;;2.30;;
17141;SDS011;32805;53.556;9.944;2023-03-13T12:25:54;3.42;;;1.63;;
17141;SDS011;32805;53.556;9.944;2023-03-13T12:28:30;3.95;;;1.85;;
17141;SDS011;32805;53.556;9.944;2023-03-13T12:31:06;3.55;;;1.90;;
17141;SDS011;32805;53.556;9.944;2023-03-13T12:33:42;4.80;;;2.00;;
17141;SDS011;32805;53.556;9.944;2023-03-13T12:36:13;5.45;;;2.17;;
17141;SDS011;32805;53.556;9.944;2023-03-13T12:38:48;5.05;;;2.20;;
17141;SDS011;32805;53.556;9.944;2023-03-13T12:41:21;3.60;;;2.00;;
17141;SDS011;32805;53.556;9.944;2023-03-13T12:43:52;4.93;;;2.10;;
17141;SDS011;32805;53.556;9.944;2023-03-13T12:46:40;3.75;;;2.05;;
17141;SDS011;32805;53.556;9.944;2023-03-13T12:49:30;4.88;;;2.03;;
17141;SDS011;32805;53.556;9.944;2023-03-13T12:52:22;5.32;;;2.08;;
17141;SDS011;32805;53.556;9.944;2023-03-13T12:55:17;3.40;;;1.58;;
17141;SDS011;32805;53.556;9.944;2023-03-13T13:00:54;2.97;;;1.60;;
17141;SDS011;32805;53.556;9.944;2023-03-13T13:03:29;2.92;;;1.60;;
17141;SDS011;32805;53.556;9.944;2023-03-13T13:06:05;2.45;;;1.30;;
17141;SDS011;32805;53.556;9.944;2023-03-13T13:08:36;3.50;;;1.67;;
17141;SDS011;32805;53.556;9.944;2023-03-13T13:17:25;4.75;;;1.40;;
17141;SDS011;32805;53.556;9.944;2023-03-13T13:22:56;3.22;;;1.60;;
17141;SDS011;32805;53.556;9.944;2023-03-13T13:25:42;3.10;;;1.50;;
17141;SDS011;32805;53.556;9.944;2023-03-13T13:28:21;3.47;;;1.40;;
17141;SDS011;32805;53.556;9.944;2023-03-13T13:30:53;3.60;;;1.50;;
17141;SDS011;32805;53.556;9.944;2023-03-13T13:33:37;1.80;;;1.30;;
17141;SDS011;32805;53.556;9.944;2023-03-13T13:36:26;4.47;;;1.65;;
17141;SDS011;32805;53.556;9.944;2023-03-13T13:39:20;3.22;;;1.40;;
17141;SDS011;32805;53.556;9.944;2023-03-13T13:41:56;3.72;;;1.42;;
17141;SDS011;32805;53.556;9.944;2023-03-13T13:44:28;3.42;;;1.50;;
17141;SDS011;32805;53.556;9.944;2023-03-13T13:46:56;3.65;;;1.20;;
17141;SDS011;32805;53.556;9.944;2023-03-13T13:57:58;1.92;;;1.50;;
17141;SDS011;32805;53.556;9.944;2023-03-13T14:00:35;2.60;;;1.80;;
17141;SDS011;32805;53.556;9.944;2023-03-13T14:03:15;3.17;;;1.35;;
17141;SDS011;32805;53.556;9.944;2023-03-13T14:05:46;3.90;;;1.48;;
17141;SDS011;32805;53.556;9.944;2023-03-13T14:08:16;4.43;;;1.40;;
17141;SDS011;32805;53.556;9.944;2023-03-13T14:10:50;2.20;;;1.52;;
17141;SDS011;32805;53.556;9.944;2023-03-13T14:13:29;2.92;;;1.70;;
17141;SDS011;32805;53.556;9.944;2023-03-13T14:16:08;3.60;;;1.45;;
17141;SDS011;32805;53.556;9.944;2023-03-13T14:18:48;3.85;;;2.03;;
17141;SDS011;32805;53.556;9.944;2023-03-13T14:21:19;2.47;;;1.85;;
17141;SDS011;32805;53.556;9.944;2023-03-13T14:23:48;3.63;;;1.85;;
17141;SDS011;32805;53.556;9.944;2023-03-13T14:26:16;4.35;;;1.60;;
17141;SDS011;32805;53.556;9.944;2023-03-13T14:28:47;3.00;;;1.40;;
17141;SDS011;32805;53.556;9.944;2023-03-13T14:31:24;2.55;;;1.42;;
17141;SDS011;32805;53.556;9.944;2023-03-13T14:33:54;4.10;;;1.13;;
17141;SDS011;32805;53.556;9.944;2023-03-13T14:36:23;4.30;;;1.52;;
17141;SDS011;32805;53.556;9.944;2023-03-13T14:38:51;4.72;;;1.98;;
17141;SDS011;32805;53.556;9.944;2023-03-13T14:41:28;3.05;;;1.50;;
17141;SDS011;32805;53.556;9.944;2023-03-13T14:44:00;1.95;;;1.10;;
17141;SDS011;32805;53.556;9.944;2023-03-13T14:46:32;4.57;;;1.90;;
17141;SDS011;32805;53.556;9.944;2023-03-13T14:49:06;4.47;;;1.58;;
17141;SDS011;32805;53.556;9.944;2023-03-13T14:51:39;3.05;;;1.15;;
17141;SDS011;32805;53.556;9.944;2023-03-13T14:54:24;4.47;;;1.35;;
17141;SDS011;32805;53.556;9.944;2023-03-13T14:57:04;2.78;;;1.60;;
17141;SDS011;32805;53.556;9.944;2023-03-13T14:59:38;2.13;;;1.48;;
17141;SDS011;32805;53.556;9.944;2023-03-13T15:02:14;6.35;;;2.20;;
17141;SDS011;32805;53.556;9.944;2023-03-13T15:04:56;3.28;;;1.98;;
17141;SDS011;32805;53.556;9.944;2023-03-13T15:07:27;2.72;;;1.83;;
17141;SDS011;32805;53.556;9.944;2023-03-13T15:10:16;2.33;;;1.73;;
17141;SDS011;32805;53.556;9.944;2023-03-13T15:12:45;4.65;;;1.65;;
17141;SDS011;32805;53.556;9.944;2023-03-13T15:15:12;2.55;;;1.55;;
17141;SDS011;32805;53.556;9.944;2023-03-13T15:17:42;2.55;;;1.45;;
17141;SDS011;32805;53.556;9.944;2023-03-13T15:20:09;2.00;;;1.33;;
17141;SDS011;32805;53.556;9.944;2023-03-13T15:22:40;3.67;;;1.65;;
17141;SDS011;32805;53.556;9.944;2023-03-13T15:25:13;2.75;;;1.58;;
17141;SDS011;32805;53.556;9.944;2023-03-13T15:27:42;11.93;;;6.25;;
17141;SDS011;32805;53.556;9.944;2023-03-13T15:30:10;20.50;;;10.32;;
17141;SDS011;32805;53.556;9.944;2023-03-13T15:32:42;4.80;;;1.98;;
17141;SDS011;32805;53.556;9.944;2023-03-13T15:35:20;5.57;;;2.97;;
17141;SDS011;32805;53.556;9.944;2023-03-13T15:37:50;6.55;;;3.22;;
17141;SDS011;32805;53.556;9.944;2023-03-13T15:40:18;4.82;;;2.08;;
17141;SDS011;32805;53.556;9.944;2023-03-13T15:42:46;3.80;;;1.85;;
17141;SDS011;32805;53.556;9.944;2023-03-13T15:45:14;8.15;;;4.30;;